Time;durP1;ratioP1;P1;durP2;ratioP2;P2;SDS_P1;SDS_P2;PMS_P1;PMS_P2;Temp;Humidity;BMP_temperature;BMP_pressure;BME280_temperature;BME280_humidity;BME280_pressure;Samples;Min_cycle;Max_cycle;Signal;HPM_P1;HPM_P2
2022/05/12 00:01:23;;;;;;;6.25;4.58;;;12.40;75.10;;;;;;1872710;77;21046;-57
2022/05/12 00:03:52;;;;;;;7.90;4.85;;;12.40;74.90;;;;;;1872780;76;21091;-57
2022/05/12 00:06:22;;;;;;;6.05;4.25;;;12.40;75.10;;;;;;1872766;76;21052;-57
2022/05/12 00:08:51;;;;;;;9.53;4.62;;;12.40;75.00;;;;;;1872682;75;21038;-56
2022/05/12 00:11:20;;;;;;;7.90;5.10;;;12.30;75.40;;;;;;1872778;77;21567;-56
2022/05/12 00:13:50;;;;;;;6.33;4.65;;;12.30;75.40;;;;;;1872723;75;21099;-57
2022/05/12 00:16:19;;;;;;;7.20;4.85;;;12.30;75.30;;;;;;1872698;75;21037;-56
2022/05/12 00:18:49;;;;;;;8.20;5.03;;;12.20;75.40;;;;;;1872672;75;21104;-56
2022/05/12 00:21:18;;;;;;;7.58;5.40;;;12.20;75.30;;;;;;1872767;77;21100;-56
2022/05/12 00:23:56;;;;;;;6.55;4.58;;;12.30;75.40;;;;;;1872712;77;21032;-56
2022/05/12 00:26:18;;;;;;;8.55;4.92;;;12.20;75.50;;;;;;1871102;77;21128;-56
2022/05/12 00:28:47;;;;;;;8.23;4.87;;;12.30;75.60;;;;;;1872812;76;21033;-57
2022/05/12 00:31:16;;;;;;;8.40;4.83;;;12.30;75.60;;;;;;1872670;76;21072;-56
2022/05/12 00:33:46;;;;;;;9.58;5.53;;;12.30;75.60;;;;;;1875795;75;21034;-56
2022/05/12 00:36:15;;;;;;;10.28;5.25;;;12.30;75.70;;;;;;1902006;75;21138;-56
2022/05/12 00:38:45;;;;;;;8.08;4.87;;;12.30;75.70;;;;;;1901992;75;21114;-56
2022/05/12 00:41:14;;;;;;;10.38;4.95;;;12.30;75.60;;;;;;1901998;75;21025;-56
2022/05/12 00:43:50;;;;;;;6.35;4.97;;;12.30;75.80;;;;;;1902095;75;21052;-56
2022/05/12 00:46:24;;;;;;;8.25;4.92;;;12.30;76.00;;;;;;1902111;75;21056;-56
2022/05/12 00:48:55;;;;;;;11.25;5.08;;;12.30;75.90;;;;;;1902164;75;21083;-56
2022/05/12 00:51:27;;;;;;;6.30;4.80;;;12.20;75.90;;;;;;1902207;75;21031;-56
2022/05/12 00:54:00;;;;;;;6.85;4.50;;;12.20;76.10;;;;;;1902260;75;21021;-56
2022/05/12 00:56:32;;;;;;;10.50;4.75;;;12.10;76.30;;;;;;1902090;75;21095;-56
2022/05/12 00:59:04;;;;;;;7.92;4.95;;;12.10;76.60;;;;;;1902226;75;21040;-56
2022/05/12 01:01:34;;;;;;;10.10;5.28;;;12.00;76.60;;;;;;1902221;75;21099;-56
2022/05/12 01:04:03;;;;;;;7.37;4.42;;;12.00;76.80;;;;;;1902149;75;21119;-56
2022/05/12 01:06:33;;;;;;;5.17;4.20;;;11.90;76.90;;;;;;1902229;75;21045;-56
2022/05/12 01:09:03;;;;;;;7.25;4.90;;;11.90;77.00;;;;;;1902209;75;21032;-56
2022/05/12 01:11:32;;;;;;;9.03;5.47;;;11.90;77.40;;;;;;1902073;75;21111;-56
2022/05/12 01:14:04;;;;;;;7.47;4.97;;;11.90;77.30;;;;;;1902158;75;21079;-56
2022/05/12 01:16:45;;;;;;;8.48;5.03;;;11.90;77.50;;;;;;1902251;75;21052;-56
2022/05/12 01:19:23;;;;;;;9.43;5.53;;;11.90;77.60;;;;;;1902205;75;21024;-56
2022/05/12 01:21:53;;;;;;;10.23;5.92;;;11.80;77.60;;;;;;1902077;75;21001;-56
2022/05/12 01:24:25;;;;;;;15.45;6.83;;;11.90;77.70;;;;;;1902162;75;21028;-56
2022/05/12 01:26:54;;;;;;;11.55;5.83;;;11.90;77.80;;;;;;1902122;75;21044;-56
2022/05/12 01:29:23;;;;;;;10.03;5.95;;;11.80;77.60;;;;;;1902172;75;21513;-56
2022/05/12 01:31:53;;;;;;;11.48;6.58;;;11.80;77.80;;;;;;1902200;75;21484;-56
2022/05/12 01:34:23;;;;;;;12.00;6.72;;;11.90;77.90;;;;;;1902210;74;21033;-56
2022/05/12 01:36:53;;;;;;;9.73;6.12;;;11.80;77.80;;;;;;1902111;75;21537;-56
2022/05/12 01:39:22;;;;;;;18.67;7.87;;;11.80;77.80;;;;;;1902104;75;21025;-56
2022/05/12 01:41:51;;;;;;;14.85;7.20;;;11.70;78.00;;;;;;1902193;75;21025;-56
2022/05/12 01:44:20;;;;;;;11.93;6.55;;;11.70;77.80;;;;;;1902082;75;21135;-56
2022/05/12 01:46:50;;;;;;;15.20;7.03;;;11.60;78.20;;;;;;1902201;75;21023;-56
2022/05/12 01:49:19;;;;;;;16.25;7.60;;;11.60;78.30;;;;;;1902236;75;21051;-56
2022/05/12 01:51:50;;;;;;;16.57;8.18;;;11.60;78.30;;;;;;1902073;75;21009;-56
2022/05/12 01:54:19;;;;;;;13.60;7.22;;;11.50;78.30;;;;;;1902116;75;21490;-55
2022/05/12 01:56:48;;;;;;;14.85;7.30;;;11.50;78.30;;;;;;1902145;75;21028;-56
2022/05/12 01:59:18;;;;;;;13.30;7.33;;;11.40;78.70;;;;;;1902220;75;21091;-56
2022/05/12 02:01:48;;;;;;;12.73;6.97;;;11.50;78.90;;;;;;1902060;75;21024;-56
2022/05/12 02:04:18;;;;;;;18.42;7.90;;;11.50;79.30;;;;;;1902118;75;21103;-56
2022/05/12 02:06:48;;;;;;;17.73;7.12;;;11.40;79.10;;;;;;1902120;75;21008;-56
2022/05/12 02:09:17;;;;;;;9.18;6.37;;;11.40;78.80;;;;;;1902146;75;21032;-56
2022/05/12 02:11:47;;;;;;;10.20;5.65;;;11.40;79.10;;;;;;1902183;75;21008;-56
2022/05/12 02:14:16;;;;;;;14.55;6.53;;;11.40;79.20;;;;;;1902163;75;21133;-56
2022/05/12 02:16:45;;;;;;;12.35;6.08;;;11.40;79.40;;;;;;1902097;75;21060;-56
2022/05/12 02:19:15;;;;;;;9.80;6.25;;;11.40;79.50;;;;;;1902195;75;21096;-56
2022/05/12 02:21:45;;;;;;;9.98;5.70;;;11.50;79.60;;;;;;1902170;75;21056;-56
2022/05/12 02:24:14;;;;;;;8.28;6.17;;;11.60;79.50;;;;;;1902118;75;21029;-56
2022/05/12 02:26:43;;;;;;;8.20;4.87;;;11.60;79.50;;;;;;1902210;75;21012;-56
2022/05/12 02:29:12;;;;;;;7.75;5.20;;;11.60;79.50;;;;;;1902119;75;21036;-56
2022/05/12 02:31:42;;;;;;;12.80;5.92;;;11.70;79.50;;;;;;1902287;75;21037;-56
2022/05/12 02:34:11;;;;;;;8.55;5.62;;;11.80;79.60;;;;;;1902187;75;21113;-56
2022/05/12 02:36:40;;;;;;;7.50;5.15;;;11.90;79.20;;;;;;1879632;75;21140;-56
2022/05/12 02:39:10;;;;;;;7.50;5.10;;;12.00;79.00;;;;;;1872865;76;21095;-56
2022/05/12 02:41:39;;;;;;;6.65;5.03;;;12.10;79.70;;;;;;1873019;75;21033;-56
2022/05/12 02:44:08;;;;;;;8.43;5.17;;;12.20;78.70;;;;;;1872820;77;21468;-56
2022/05/12 02:46:37;;;;;;;5.65;4.67;;;12.20;78.40;;;;;;1872704;75;21104;-56
2022/05/12 02:49:07;;;;;;;7.28;4.47;;;12.30;78.20;;;;;;1872696;75;21057;-56
2022/05/12 02:51:36;;;;;;;9.00;4.85;;;12.30;78.00;;;;;;1872769;77;21089;-56
2022/05/12 02:54:06;;;;;;;12.53;5.55;;;12.30;78.20;;;;;;1872727;75;21654;-56
2022/05/12 02:56:35;;;;;;;8.70;5.28;;;12.30;78.00;;;;;;1872715;77;21448;-55
2022/05/12 02:59:05;;;;;;;6.45;5.28;;;12.40;78.20;;;;;;1872886;75;21091;-56
2022/05/12 03:01:34;;;;;;;9.45;5.28;;;12.40;78.10;;;;;;1872820;75;21029;-56
2022/05/12 03:04:04;;;;;;;6.80;5.03;;;12.40;78.00;;;;;;1872656;75;21111;-56
2022/05/12 03:06:33;;;;;;;9.28;5.03;;;12.40;78.20;;;;;;1872683;76;21029;-55
2022/05/12 03:09:03;;;;;;;8.15;5.12;;;12.40;78.10;;;;;;1872773;77;21092;-56
2022/05/12 03:11:32;;;;;;;8.50;5.30;;;12.50;78.00;;;;;;1872882;77;21100;-55
2022/05/12 03:14:03;;;;;;;9.80;4.90;;;12.60;77.90;;;;;;1872829;77;21034;-56
2022/05/12 03:16:33;;;;;;;7.35;4.80;;;12.60;77.80;;;;;;1872849;76;21092;-56
2022/05/12 03:19:02;;;;;;;6.90;5.30;;;12.70;77.60;;;;;;1872950;77;21026;-56
2022/05/12 03:21:31;;;;;;;10.03;5.58;;;12.80;77.70;;;;;;1872721;75;21030;-56
2022/05/12 03:24:01;;;;;;;6.95;5.15;;;12.90;77.60;;;;;;1872708;77;21159;-56
2022/05/12 03:26:31;;;;;;;7.42;5.00;;;13.00;77.30;;;;;;1872799;76;21054;-56
2022/05/12 03:29:00;;;;;;;8.33;4.67;;;13.00;77.30;;;;;;1872741;75;21039;-55
2022/05/12 03:31:30;;;;;;;11.35;5.53;;;13.10;77.10;;;;;;1872809;75;21084;-55
2022/05/12 03:34:00;;;;;;;8.28;4.85;;;13.20;77.00;;;;;;1872718;77;21037;-55
2022/05/12 03:36:33;;;;;;;9.23;4.92;;;13.30;76.80;;;;;;1885968;75;21040;-55
2022/05/12 03:39:00;;;;;;;10.15;4.97;;;13.40;76.70;;;;;;1901863;75;21479;-56
2022/05/12 03:41:29;;;;;;;9.43;5.35;;;13.50;76.50;;;;;;1902114;75;21032;-55
2022/05/12 03:46:46;;;;;;;5.80;4.15;;;13.60;76.00;;;;;;1902139;75;21075;-55
2022/05/12 03:49:15;;;;;;;36.28;9.25;;;13.70;75.80;;;;;;1902215;75;21028;-56
2022/05/12 03:51:45;;;;;;;13.83;5.58;;;13.90;75.70;;;;;;1902092;75;21033;-56
2022/05/12 03:54:15;;;;;;;10.88;5.17;;;14.00;75.40;;;;;;1902043;75;21098;-55
2022/05/12 03:56:44;;;;;;;7.67;5.08;;;14.10;75.20;;;;;;1901984;75;21033;-55
2022/05/12 03:59:14;;;;;;;10.50;4.10;;;14.20;74.90;;;;;;1902159;75;21056;-56
2022/05/12 04:01:43;;;;;;;7.33;4.33;;;14.30;74.70;;;;;;1901999;75;21052;-55
2022/05/12 04:04:13;;;;;;;10.23;4.75;;;14.40;74.40;;;;;;1902060;75;21127;-56
2022/05/12 04:06:42;;;;;;;8.20;4.90;;;14.50;74.20;;;;;;1902037;75;21021;-55
2022/05/12 04:09:11;;;;;;;8.70;4.12;;;14.60;74.40;;;;;;1902092;75;21033;-56
2022/05/12 04:11:40;;;;;;;10.32;4.65;;;14.70;73.80;;;;;;1901996;75;21036;-55
2022/05/12 04:14:10;;;;;;;7.40;5.12;;;14.70;73.70;;;;;;1902028;75;21048;-56
2022/05/12 04:16:39;;;;;;;14.90;5.03;;;14.90;73.50;;;;;;1901981;75;21028;-55
2022/05/12 04:19:08;;;;;;;26.33;5.47;;;15.00;73.40;;;;;;1902076;75;21098;-56
2022/05/12 04:21:37;;;;;;;13.05;5.10;;;15.10;73.10;;;;;;1902077;75;21032;-56
2022/05/12 04:24:08;;;;;;;11.68;4.92;;;15.20;73.30;;;;;;1902068;75;21080;-55
2022/05/12 04:26:40;;;;;;;12.93;4.92;;;15.30;72.90;;;;;;1902146;75;21106;-56
2022/05/12 04:29:09;;;;;;;13.15;5.42;;;15.40;71.90;;;;;;1902051;75;21099;-56
2022/05/12 04:31:38;;;;;;;7.15;4.22;;;15.50;71.70;;;;;;1902078;75;21032;-55
2022/05/12 04:36:55;;;;;;;5.28;4.25;;;15.60;70.90;;;;;;1902196;74;21067;-56
2022/05/12 04:39:25;;;;;;;8.20;4.92;;;15.70;70.70;;;;;;1902051;75;21032;-55
2022/05/12 04:41:55;;;;;;;8.38;4.33;;;15.70;70.40;;;;;;1902122;75;21033;-55
2022/05/12 04:44:26;;;;;;;8.55;4.78;;;15.80;70.40;;;;;;1902204;75;21024;-56
2022/05/12 04:46:54;;;;;;;8.13;4.53;;;15.90;70.00;;;;;;1902165;75;21079;-55
2022/05/12 04:49:26;;;;;;;6.25;3.85;;;16.00;69.80;;;;;;1902193;75;21009;-56
2022/05/12 04:51:57;;;;;;;4.47;3.83;;;16.00;69.30;;;;;;1902128;75;21090;-56
2022/05/12 04:54:26;;;;;;;5.15;3.60;;;16.10;68.70;;;;;;1902290;75;21021;-55
2022/05/12 04:56:56;;;;;;;7.20;4.28;;;16.20;68.40;;;;;;1902220;75;21098;-56
2022/05/12 04:59:25;;;;;;;6.00;4.03;;;16.20;68.40;;;;;;1902088;75;21009;-56
2022/05/12 05:01:54;;;;;;;10.78;3.98;;;16.30;68.50;;;;;;1902177;75;21102;-56
2022/05/12 05:04:24;;;;;;;6.15;4.10;;;16.40;67.70;;;;;;1902151;75;21061;-55
2022/05/12 05:06:53;;;;;;;10.32;5.28;;;16.40;67.60;;;;;;1902209;75;21098;-56
2022/05/12 05:09:23;;;;;;;6.10;4.10;;;16.50;67.30;;;;;;1902266;75;21025;-55
2022/05/12 05:11:52;;;;;;;8.03;4.20;;;16.60;67.30;;;;;;1902195;75;21045;-56
2022/05/12 05:14:21;;;;;;;10.38;4.33;;;16.70;66.90;;;;;;1902030;75;21095;-55
2022/05/12 05:16:51;;;;;;;10.60;4.33;;;16.80;66.90;;;;;;1902036;75;21028;-55
2022/05/12 05:19:21;;;;;;;4.62;3.62;;;16.80;66.50;;;;;;1902154;75;21178;-55
2022/05/12 05:21:50;;;;;;;9.55;4.60;;;16.90;66.50;;;;;;1902080;75;21024;-56
2022/05/12 05:24:20;;;;;;;8.63;3.90;;;17.00;66.30;;;;;;1902129;75;21174;-59
2022/05/12 05:26:49;;;;;;;11.28;5.20;;;17.10;65.80;;;;;;1902226;75;21104;-55
2022/05/12 05:29:19;;;;;;;9.95;4.25;;;17.20;65.80;;;;;;1902078;75;21054;-56
2022/05/12 05:31:49;;;;;;;12.35;5.65;;;17.20;65.40;;;;;;1902093;75;21024;-56
2022/05/12 05:34:19;;;;;;;10.65;5.62;;;17.30;65.40;;;;;;1902112;75;21086;-55
2022/05/12 05:36:48;;;;;;;9.98;4.05;;;17.40;65.40;;;;;;1903059;74;21061;-54
2022/05/12 05:39:22;;;;;;;10.00;5.22;;;17.40;65.10;;;;;;1924626;74;21204;-56
2022/05/12 05:41:53;;;;;;;11.20;4.42;;;17.50;64.90;;;;;;1924689;74;21027;-56
2022/05/12 05:44:22;;;;;;;7.15;4.08;;;17.50;64.70;;;;;;1924532;74;21098;-55
2022/05/12 05:46:52;;;;;;;5.40;3.95;;;17.60;64.20;;;;;;1924686;74;21094;-55
2022/05/12 05:49:21;;;;;;;8.25;4.15;;;17.70;63.80;;;;;;1924669;74;21027;-56
2022/05/12 05:54:38;;;;;;;15.63;3.98;;;17.80;63.70;;;;;;1924670;74;21075;-56
2022/05/12 05:57:07;;;;;;;8.43;4.05;;;17.80;63.70;;;;;;1924618;74;21000;-55
2022/05/12 05:59:37;;;;;;;6.87;4.45;;;17.90;63.60;;;;;;1924791;74;21028;-56
2022/05/12 06:02:07;;;;;;;6.25;3.70;;;18.00;63.40;;;;;;1924699;74;21086;-56
2022/05/12 06:04:36;;;;;;;5.30;4.42;;;18.00;63.30;;;;;;1924723;74;21027;-56
2022/05/12 06:07:05;;;;;;;9.03;3.90;;;18.10;63.30;;;;;;1924679;74;21036;-55
2022/05/12 06:09:34;;;;;;;8.58;3.60;;;18.20;63.00;;;;;;1924722;74;21059;-56
2022/05/12 06:12:04;;;;;;;7.87;4.67;;;18.30;62.80;;;;;;1924609;74;21008;-56
2022/05/12 06:14:34;;;;;;;8.40;4.35;;;18.40;62.40;;;;;;1924566;74;21103;-55
2022/05/12 06:17:03;;;;;;;16.65;8.48;;;18.40;62.30;;;;;;1924703;74;21003;-56
2022/05/12 06:19:33;;;;;;;5.15;3.85;;;18.50;62.50;;;;;;1924544;74;21028;-55
2022/05/12 06:22:02;;;;;;;8.35;3.87;;;18.50;62.20;;;;;;1924701;74;21028;-55
2022/05/12 06:24:32;;;;;;;10.10;4.80;;;18.60;61.50;;;;;;1924763;74;21004;-56
2022/05/12 06:27:01;;;;;;;7.17;4.25;;;18.60;61.30;;;;;;1924577;74;21101;-55
2022/05/12 06:29:30;;;;;;;8.75;4.30;;;18.70;61.20;;;;;;1924673;74;21109;-55
2022/05/12 06:32:01;;;;;;;9.13;5.25;;;18.70;60.70;;;;;;1924693;74;21028;-56
2022/05/12 06:34:31;;;;;;;8.38;4.20;;;18.70;60.70;;;;;;1924626;74;21462;-55
2022/05/12 06:37:00;;;;;;;12.63;4.75;;;18.70;60.10;;;;;;1924699;74;21024;-55
2022/05/12 06:39:30;;;;;;;5.35;3.35;;;18.80;60.20;;;;;;1904731;74;21107;-55
2022/05/12 06:42:00;;;;;;;6.60;3.37;;;18.80;60.00;;;;;;1902140;75;21041;-56
2022/05/12 06:44:30;;;;;;;7.65;3.47;;;18.90;59.60;;;;;;1899554;75;21032;-56
2022/05/12 06:47:00;;;;;;;6.35;3.42;;;19.00;59.20;;;;;;1902031;75;21431;-56
2022/05/12 06:49:30;;;;;;;7.87;4.08;;;19.00;58.00;;;;;;1901979;75;21095;-56
2022/05/12 06:51:59;;;;;;;6.05;3.87;;;19.10;58.70;;;;;;1902149;75;21029;-56
2022/05/12 06:54:29;;;;;;;7.22;3.95;;;19.10;58.50;;;;;;1902001;75;21092;-56
2022/05/12 06:56:58;;;;;;;5.00;3.02;;;19.20;58.30;;;;;;1902082;75;21161;-56
2022/05/12 06:59:28;;;;;;;5.15;3.47;;;19.30;57.80;;;;;;1902013;75;21013;-59
2022/05/12 07:01:58;;;;;;;5.37;3.58;;;19.30;57.70;;;;;;1901979;75;21302;-60
2022/05/12 07:04:29;;;;;;;6.90;3.62;;;19.40;57.10;;;;;;1902102;75;21036;-60
2022/05/12 07:06:58;;;;;;;6.33;3.70;;;19.40;56.60;;;;;;1902084;75;21052;-58
2022/05/12 07:09:29;;;;;;;3.95;3.20;;;19.40;56.50;;;;;;1900729;75;21068;-57
2022/05/12 07:11:58;;;;;;;14.18;3.83;;;19.40;56.60;;;;;;1900992;75;21130;-58
2022/05/12 07:14:27;;;;;;;5.37;2.98;;;19.50;55.70;;;;;;1907028;74;21040;-63
2022/05/12 07:16:57;;;;;;;12.73;3.90;;;19.50;56.00;;;;;;1914702;74;21122;-58
2022/05/12 07:19:26;;;;;;;6.17;3.75;;;19.60;55.60;;;;;;1911217;74;21459;-61
2022/05/12 07:27:29;;;;;;;5.55;3.20;;;19.30;55.10;;;;;;1907136;74;21103;-59
2022/05/12 07:29:59;;;;;;;7.30;2.80;;;19.20;53.90;;;;;;1902872;74;21082;-59
2022/05/12 07:32:29;;;;;;;5.08;2.90;;;19.00;52.00;;;;;;1910014;74;21066;-60
2022/05/12 07:34:58;;;;;;;6.87;2.80;;;18.90;52.00;;;;;;1912160;74;21066;-59
2022/05/12 07:37:28;;;;;;;6.17;3.10;;;18.80;53.10;;;;;;1913841;74;21136;-58
2022/05/12 07:39:58;;;;;;;12.88;4.22;;;18.70;53.70;;;;;;1915676;74;21153;-59
2022/05/12 07:42:29;;;;;;;5.97;3.02;;;18.70;54.50;;;;;;1923335;74;21078;-58
2022/05/12 07:44:58;;;;;;;5.75;2.60;;;18.70;53.80;;;;;;1918357;74;21067;-57
2022/05/12 07:47:27;;;;;;;5.42;2.40;;;18.60;52.60;;;;;;1915034;74;20998;-58
2022/05/12 07:49:57;;;;;;;6.87;2.05;;;18.70;52.30;;;;;;1916589;74;21083;-58
2022/05/12 07:52:29;;;;;;;5.55;2.83;;;18.80;50.00;;;;;;1914095;75;21024;-60
2022/05/12 07:54:58;;;;;;;8.50;3.35;;;18.90;48.30;;;;;;1914002;75;21036;-59
2022/05/12 07:57:27;;;;;;;8.25;3.70;;;19.00;48.30;;;;;;1914126;75;21036;-59
2022/05/12 07:59:56;;;;;;;5.45;3.27;;;19.00;50.10;;;;;;1913914;75;21216;-59
2022/05/12 08:02:26;;;;;;;8.05;2.90;;;18.90;51.00;;;;;;1918542;74;21123;-58
2022/05/12 08:04:56;;;;;;;10.23;3.47;;;18.90;50.70;;;;;;1913966;75;21094;-58
2022/05/12 08:07:26;;;;;;;5.67;3.00;;;18.90;50.70;;;;;;1914020;75;21004;-57
2022/05/12 08:09:57;;;;;;;7.40;2.67;;;19.10;49.70;;;;;;1934385;74;21116;-58
2022/05/12 08:12:26;;;;;;;2.55;1.50;;;19.20;47.60;;;;;;1913979;75;21024;-58
2022/05/12 08:14:56;;;;;;;5.08;1.82;;;19.40;46.30;;;;;;1913433;75;21114;-58
2022/05/12 08:17:25;;;;;;;4.35;2.42;;;19.50;45.50;;;;;;1913304;75;21091;-58
2022/05/12 08:19:54;;;;;;;5.20;2.45;;;19.70;45.60;;;;;;1913161;75;21083;-63
2022/05/12 08:22:24;;;;;;;5.62;2.08;;;19.70;45.00;;;;;;1913173;75;21157;-60
2022/05/12 08:24:53;;;;;;;5.50;2.20;;;19.90;43.10;;;;;;1913122;75;21103;-62
2022/05/12 08:27:24;;;;;;;4.10;2.22;;;19.90;42.60;;;;;;1913106;75;21249;-63
2022/05/12 08:29:54;;;;;;;7.35;2.00;;;20.00;42.60;;;;;;1913671;75;21141;-61
2022/05/12 08:32:23;;;;;;;2.33;2.10;;;20.10;43.10;;;;;;1914103;75;21083;-58
2022/05/12 08:34:53;;;;;;;6.60;2.45;;;20.20;43.20;;;;;;1914006;75;21098;-58
2022/05/12 08:37:22;;;;;;;5.20;2.45;;;20.30;42.80;;;;;;1913971;75;21075;-57
2022/05/12 08:39:52;;;;;;;5.35;2.40;;;20.40;42.00;;;;;;1913840;75;21059;-57
2022/05/12 08:42:33;;;;;;;4.37;2.25;;;20.40;41.90;;;;;;1913735;74;21110;-59
2022/05/12 08:45:05;;;;;;;5.87;2.83;;;20.50;41.70;;;;;;1905368;75;21168;-57
2022/05/12 08:47:37;;;;;;;10.50;5.85;;;20.50;41.40;;;;;;1922208;74;21578;-59
2022/05/12 08:50:08;;;;;;;7.12;4.00;;;20.50;42.10;;;;;;1917827;74;21498;-58
2022/05/12 08:52:52;;;;;;;8.03;6.65;;;20.60;42.90;;;;;;1923127;74;21050;-59
2022/05/12 08:55:33;;;;;;;5.90;4.25;;;20.60;43.50;;;;;;1923201;74;21079;-59
2022/05/12 08:58:17;;;;;;;3.42;2.45;;;20.60;43.70;;;;;;1922667;74;21094;-62
2022/05/12 09:01:10;;;;;;;7.55;4.08;;;20.70;43.90;;;;;;1915353;74;21161;-60
2022/05/12 09:03:54;;;;;;;7.15;4.10;;;20.70;44.20;;;;;;1922600;74;21240;-61
2022/05/12 09:06:32;;;;;;;6.15;2.35;;;20.80;44.50;;;;;;1913461;75;21012;-57
2022/05/12 09:09:07;;;;;;;6.40;3.87;;;20.90;43.70;;;;;;1913626;74;21082;-58
2022/05/12 09:11:39;;;;;;;;;;;20.80;43.90;;;;;;1922520;74;21533;-58
2022/05/12 09:14:14;;;;;;;10.72;3.72;;;20.80;43.40;;;;;;1921935;74;20164;-57
2022/05/12 09:16:43;;;;;;;;;;;20.80;44.90;;;;;;1920512;74;21009;-57
2022/05/12 09:19:14;;;;;;;14.05;5.30;;;20.90;44.80;;;;;;1913385;75;20469;-58
2022/05/12 09:21:44;;;;;;;9.13;4.05;;;20.90;45.40;;;;;;1913373;75;21511;-57
2022/05/12 09:24:13;;;;;;;6.80;3.10;;;20.80;45.20;;;;;;1922772;74;21072;-58
2022/05/12 09:26:51;;;;;;;8.63;3.52;;;20.70;45.30;;;;;;1918032;74;20991;-57
2022/05/12 09:29:23;;;;;;;5.80;2.77;;;20.70;45.70;;;;;;1913375;75;21144;-60
2022/05/12 09:31:58;;;;;;;5.17;2.45;;;20.60;45.70;;;;;;1913907;75;21023;-59
2022/05/12 09:34:36;;;;;;;10.63;4.00;;;20.70;45.60;;;;;;1914067;75;21077;-60
2022/05/12 09:37:29;;;;;;;6.28;2.77;;;20.70;45.90;;;;;;1914043;75;21066;-59
2022/05/12 09:40:21;;;;;;;3.75;2.62;;;20.80;45.40;;;;;;1911028;75;21087;-60
2022/05/12 09:42:53;;;;;;;8.63;3.20;;;21.00;44.70;;;;;;1904632;75;21090;-58
2022/05/12 09:45:31;;;;;;;6.97;2.75;;;21.10;44.00;;;;;;1904704;74;21089;-58
2022/05/12 09:48:12;;;;;;;3.02;2.42;;;21.20;43.50;;;;;;1904437;74;20996;-58
2022/05/12 09:50:41;;;;;;;8.63;3.05;;;21.20;42.90;;;;;;1903402;74;21019;-58
2022/05/12 09:53:13;;;;;;;8.75;2.60;;;21.20;43.20;;;;;;1904717;75;21081;-58
2022/05/12 09:55:44;;;;;;;5.53;2.58;;;21.20;43.80;;;;;;1904682;74;21015;-61
2022/05/12 09:58:19;;;;;;;13.45;3.08;;;21.30;43.80;;;;;;1902861;74;21147;-59
2022/05/12 10:00:50;;;;;;;;;;;21.40;43.40;;;;;;1906641;74;21519;-59
2022/05/12 10:09:31;;;;;;;5.75;2.67;;;21.40;41.60;;;;;;1901504;75;21099;-58
2022/05/12 10:12:18;;;;;;;7.87;3.75;;;21.40;41.80;;;;;;1901340;75;21009;-58
2022/05/12 10:14:50;;;;;;;9.38;3.52;;;21.50;42.10;;;;;;1901558;75;21083;-59
2022/05/12 10:17:37;;;;;;;9.10;3.22;;;21.50;42.60;;;;;;1901497;75;21225;-66
2022/05/12 10:20:09;;;;;;;5.83;3.52;;;21.50;42.50;;;;;;1901064;75;21149;-61
2022/05/12 10:22:44;;;;;;;3.85;2.75;;;21.50;42.20;;;;;;1901573;75;21076;-58
2022/05/12 10:25:37;;;;;;;4.83;2.62;;;21.50;42.30;;;;;;1902262;75;21021;-58
2022/05/12 10:28:18;;;;;;;8.78;2.67;;;21.50;41.90;;;;;;1901582;75;21082;-60
2022/05/12 10:30:50;;;;;;;7.37;3.27;;;21.50;42.10;;;;;;1901343;75;21103;-60
2022/05/12 10:33:24;;;;;;;4.75;2.72;;;21.50;41.40;;;;;;1872744;75;21671;-62
2022/05/12 10:36:13;;;;;;;8.50;3.22;;;21.40;42.00;;;;;;1901481;75;21025;-60
2022/05/12 10:38:54;;;;;;;6.85;3.10;;;21.40;42.60;;;;;;1901523;75;21087;-58
2022/05/12 10:41:27;;;;;;;8.95;3.55;;;21.40;43.50;;;;;;1834879;77;21133;-61
2022/05/12 10:44:02;;;;;;;13.18;4.37;;;21.50;44.00;;;;;;1873010;76;21555;-61
2022/05/12 10:46:37;;;;;;;6.03;3.58;;;21.50;43.60;;;;;;1923916;74;21038;-62
2022/05/12 10:49:24;;;;;;;9.33;3.30;;;21.40;44.10;;;;;;1880452;76;21132;-61
2022/05/12 10:52:04;;;;;;;6.55;2.85;;;21.50;44.90;;;;;;1880471;76;21085;-63
2022/05/12 10:54:36;;;;;;;6.03;3.20;;;21.60;45.20;;;;;;1880596;76;22081;-63
2022/05/12 10:57:29;;;;;;;7.08;3.00;;;21.60;44.60;;;;;;1880454;75;21070;-62
2022/05/12 11:00:04;;;;;;;6.85;2.87;;;21.60;45.00;;;;;;1942168;74;21730;-60
2022/05/12 11:02:48;;;;;;;6.30;3.67;;;21.60;44.90;;;;;;1942474;74;21031;-61
2022/05/12 11:05:29;;;;;;;8.43;3.55;;;21.70;44.80;;;;;;1942526;74;21090;-59
2022/05/12 11:08:09;;;;;;;10.43;3.40;;;21.70;44.90;;;;;;1933323;73;21016;-62
2022/05/12 11:10:41;;;;;;;7.70;3.90;;;21.70;44.60;;;;;;1923362;74;21095;-61
2022/05/12 11:13:19;;;;;;;6.50;2.95;;;21.80;44.60;;;;;;1922466;74;21532;-60
2022/05/12 11:15:51;;;;;;;6.10;3.47;;;21.90;44.50;;;;;;1924324;74;21042;-60
2022/05/12 11:18:26;;;;;;;4.87;3.12;;;21.90;45.30;;;;;;1924421;74;21025;-60
2022/05/12 11:21:07;;;;;;;7.40;3.27;;;21.80;45.50;;;;;;1922000;74;21124;-60
2022/05/12 11:23:44;;;;;;;6.67;3.33;;;21.90;45.50;;;;;;1924281;74;21050;-61
2022/05/12 11:26:31;;;;;;;7.78;3.52;;;21.80;45.50;;;;;;1886926;74;21104;-61
2022/05/12 11:32:26;;;;;;;8.58;3.15;;;21.70;45.60;;;;;;1924341;74;21108;-61
2022/05/12 11:35:11;;;;;;;4.80;3.00;;;21.70;45.80;;;;;;1878372;76;21043;-61
2022/05/12 11:37:47;;;;;;;7.53;3.50;;;21.70;45.40;;;;;;1924327;74;21143;-61
2022/05/12 11:40:36;;;;;;;8.48;3.42;;;21.70;46.10;;;;;;1924231;74;21026;-60
2022/05/12 11:46:33;;;;;;;8.00;3.33;;;21.70;46.70;;;;;;1924459;74;21026;-61
2022/05/12 11:49:14;;;;;;;7.22;3.40;;;21.70;47.20;;;;;;1924486;74;21595;-61
2022/05/12 11:51:57;;;;;;;4.58;3.22;;;21.80;47.50;;;;;;1924360;74;21050;-61
2022/05/12 11:54:42;;;;;;;6.87;3.45;;;21.70;47.40;;;;;;1924302;74;21045;-62
2022/05/12 11:57:26;;;;;;;11.97;4.42;;;21.80;47.60;;;;;;1922963;74;21034;-61
2022/05/12 11:59:57;;;;;;;4.45;3.15;;;21.70;47.90;;;;;;1924354;74;21018;-61
2022/05/12 12:02:38;;;;;;;7.00;3.55;;;21.70;48.00;;;;;;1924525;74;21092;-61
2022/05/12 12:05:10;;;;;;;4.25;3.58;;;21.70;47.90;;;;;;1924603;74;21445;-61
2022/05/12 12:07:42;;;;;;;8.50;3.70;;;21.70;48.30;;;;;;1924425;74;21019;-62
2022/05/12 12:10:26;;;;;;;20.20;7.15;;;21.70;48.80;;;;;;1924459;74;21022;-61
2022/05/12 12:13:01;;;;;;;7.58;3.62;;;21.60;48.80;;;;;;1924508;74;21050;-61
2022/05/12 12:15:36;;;;;;;7.10;3.22;;;21.60;49.10;;;;;;1923092;74;21547;-62
2022/05/12 12:18:25;;;;;;;5.05;3.62;;;21.60;49.30;;;;;;1924353;74;21083;-61
2022/05/12 12:21:02;;;;;;;8.80;3.62;;;21.70;49.50;;;;;;1924353;74;21080;-61
2022/05/12 12:23:34;;;;;;;19.00;7.15;;;21.70;49.50;;;;;;1924119;74;21103;-61
2022/05/12 12:26:22;;;;;;;7.90;4.10;;;21.70;49.70;;;;;;1924309;74;21112;-61
2022/05/12 12:29:17;;;;;;;4.97;3.47;;;21.70;49.90;;;;;;1878193;76;21062;-62
2022/05/12 12:31:48;;;;;;;5.95;3.80;;;21.70;49.90;;;;;;1924473;74;21113;-61
2022/05/12 12:34:31;;;;;;;9.08;4.40;;;21.60;50.00;;;;;;1878362;76;21030;-61
2022/05/12 12:37:06;;;;;;;10.18;4.45;;;21.50;50.10;;;;;;1923528;74;21007;-61
2022/05/12 12:39:50;;;;;;;7.03;3.98;;;21.40;50.20;;;;;;1924491;74;21045;-61
2022/05/12 12:42:27;;;;;;;13.22;4.58;;;21.40;50.30;;;;;;1901112;74;21480;-61
2022/05/12 12:45:01;;;;;;;8.43;3.85;;;21.40;50.20;;;;;;1888595;76;21044;-64
2022/05/12 12:47:43;;;;;;;6.30;3.98;;;21.50;50.20;;;;;;1870916;75;21037;-61
2022/05/12 12:50:30;;;;;;;7.75;3.80;;;21.40;50.20;;;;;;1888602;76;21036;-61
2022/05/12 12:52:59;;;;;;;5.53;3.40;;;21.40;50.10;;;;;;1888591;75;21078;-61
2022/05/12 12:58:36;;;;;;;6.35;3.17;;;21.50;50.10;;;;;;1888591;75;21025;-61
2022/05/12 13:01:20;;;;;;;8.68;3.27;;;21.40;50.20;;;;;;1844060;77;21117;-61
2022/05/12 13:03:56;;;;;;;7.53;3.47;;;21.40;50.30;;;;;;1844270;77;21147;-61
2022/05/12 13:06:36;;;;;;;3.72;3.30;;;21.40;50.30;;;;;;1844301;77;21040;-61
2022/05/12 13:09:14;;;;;;;6.25;3.12;;;21.40;50.30;;;;;;1844094;78;21118;-61
2022/05/12 13:11:44;;;;;;;7.08;3.22;;;21.40;50.20;;;;;;1844122;77;21106;-61
2022/05/12 13:14:15;;;;;;;6.47;3.00;;;21.40;50.10;;;;;;1844024;78;21043;-61
2022/05/12 13:16:47;;;;;;;5.92;3.25;;;21.30;50.20;;;;;;1843976;76;21548;-62
2022/05/12 13:19:18;;;;;;;9.78;3.37;;;21.30;50.60;;;;;;1844195;76;21036;-61
2022/05/12 13:21:48;;;;;;;7.78;3.17;;;21.20;50.40;;;;;;1842697;77;21008;-61
2022/05/12 13:24:28;;;;;;;6.70;4.15;;;21.20;50.40;;;;;;1844156;77;21118;-61
2022/05/12 13:27:01;;;;;;;11.08;3.87;;;21.20;50.30;;;;;;1844194;77;21076;-61
2022/05/12 13:29:36;;;;;;;4.50;3.50;;;21.20;50.40;;;;;;1844088;78;21153;-61
2022/05/12 13:32:11;;;;;;;4.10;2.87;;;21.10;50.90;;;;;;1844301;77;21056;-62
2022/05/12 13:34:40;;;;;;;7.53;3.33;;;21.10;50.90;;;;;;1844236;77;21060;-61
2022/05/12 13:37:18;;;;;;;12.88;4.87;;;21.10;51.00;;;;;;1844065;77;21084;-63
2022/05/12 13:39:53;;;;;;;4.50;3.50;;;21.00;51.10;;;;;;1844119;78;21206;-63
2022/05/12 13:42:26;;;;;;;6.60;3.05;;;21.10;51.20;;;;;;1860892;76;21070;-61